Airport Name : Trang

Other Name : Trang

ICAO : VTST

IATA : TST

FAA :

Latitude : 7.508744

Longitude : 99.616578

Country : Thailand

Local Date and Time : 30 May 2024 14:20

 

TAF (Terminal Aerodrome Forecast)

TAF VTST 300500Z 3006/3106 20005KT 9999 SCT030

 

METAR (METeorological Aerodrome Report)

VTST 300700Z 22004KT 180V280 9999 FEW030 33/26 Q1006 NOSIG

VTST 300600Z 23005KT 200V270 9999 FEW030 33/26 Q1007 NOSIG

VTST 300500Z VRB03KT 9999 FEW030 33/27 Q1007 NOSIG

VTST 300400Z 22003KT 190V260 9999 SCT030 32/26 Q1008 NOSIG